Observation data for Silverton on 04/22/2019      Previous  Date  Next       Current Mesonet Observations  Soil Data  Daily Summary Page  Observations in Plain Language
KSVS 220500Z 21007KT 13/00 A2988 RMK A01 T01330004  RH  042%=      5-min Rain = 0
KSVS 220505Z 21007KT 13/00 A2988 RMK A01 T01290001  RH  042%=      5-min Rain = 0
KSVS 220510Z 21008KT 13/00 A2988 RMK A01 T01270000  RH  042%=      5-min Rain = 0
KSVS 220515Z 21008KT 12/00 A2988 RMK A01 T01210001  RH  044%=      5-min Rain = 0
KSVS 220520Z 21009KT 12/00 A2988 RMK A01 T01180002  RH  045%=      5-min Rain = 0
KSVS 220525Z 21009KT 12/01 A2988 RMK A01 T01190009  RH  048%=      5-min Rain = 0
KSVS 220530Z 21009KT 12/01 A2988 RMK A01 T01220010  RH  047%=      5-min Rain = 0
KSVS 220535Z 21008KT 12/01 A2988 RMK A01 T01200008  RH  047%=      5-min Rain = 0
KSVS 220540Z 21009KT 12/01 A2988 RMK A01 T01190008  RH  047%=      5-min Rain = 0
KSVS 220545Z 21009KT 12/01 A2988 RMK A01 T01190010  RH  048%=      5-min Rain = 0
KSVS 220550Z 21009KT 12/02 A2988 RMK A01 T01180015  RH  050%=      5-min Rain = 0
KSVS 220555Z 22009KT 12/02 A2988 RMK A01 T01180015  RH  050%=      5-min Rain = 0
KSVS 220600Z 22009KT 12/02 A2988 RMK A01 T01170015  RH  050%=      5-min Rain = 0
KSVS 220605Z 22008KT 11/02 A2988 RMK A01 T01120015  RH  052%=      5-min Rain = 0
KSVS 220610Z 22007KT 11/01 A2988 RMK A01 T01090014  RH  053%=      5-min Rain = 0
KSVS 220615Z 22008KT 11/02 A2988 RMK A01 T01100017  RH  053%=      5-min Rain = 0
KSVS 220620Z 23008KT 11/02 A2988 RMK A01 T01130017  RH  052%=      5-min Rain = 0
KSVS 220625Z 22009KT 11/02 A2989 RMK A01 T01100017  RH  053%=      5-min Rain = 0
KSVS 220630Z 22009KT 12/02 A2989 RMK A01 T01190018  RH  051%=      5-min Rain = 0
KSVS 220635Z 21010KT 11/02 A2989 RMK A01 T01140019  RH  053%=      5-min Rain = 0
KSVS 220640Z 21009KT 11/02 A2989 RMK A01 T01100018  RH  054%=      5-min Rain = 0
KSVS 220645Z 21010KT 11/02 A2989 RMK A01 T01100019  RH  054%=      5-min Rain = 0
KSVS 220650Z 22010KT 11/02 A2989 RMK A01 T01120022  RH  055%=      5-min Rain = 0
KSVS 220655Z 22010KT 11/03 A2988 RMK A01 T01130025  RH  056%=      5-min Rain = 0
KSVS 220700Z 21010KT 11/03 A2988 RMK A01 T01090025  RH  057%=      5-min Rain = 0
KSVS 220705Z 21011KT 10/02 A2988 RMK A01 T01040022  RH  058%=      5-min Rain = 0
KSVS 220710Z 22011KT 10/02 A2988 RMK A01 T01040024  RH  059%=      5-min Rain = 0
KSVS 220715Z 22012KT 12/03 A2988 RMK A01 T01200031  RH  055%=      5-min Rain = 0
KSVS 220720Z 22012KT 14/04 A2988 RMK A01 T01390039  RH  052%=      5-min Rain = 0
KSVS 220725Z 22012KT 14/04 A2988 RMK A01 T01440042  RH  051%=      5-min Rain = 0
KSVS 220730Z 22013KT 15/05 A2987 RMK A01 T01490049  RH  052%=      5-min Rain = 0
KSVS 220735Z 22013KT 15/06 A2987 RMK A01 T01530057  RH  054%=      5-min Rain = 0
KSVS 220740Z 21012KT 16/06 A2987 RMK A01 T01550062  RH  055%=      5-min Rain = 0
KSVS 220745Z 21010KT 15/06 A2988 RMK A01 T01520064  RH  057%=      5-min Rain = 0
KSVS 220750Z 22009KT 15/07 A2988 RMK A01 T01480067  RH  060%=      5-min Rain = 0
KSVS 220755Z 23008KT 15/07 A2988 RMK A01 T01450068  RH  061%=      5-min Rain = 0
KSVS 220800Z 25007KT 13/06 A2988 RMK A01 T01340063  RH  064%=      5-min Rain = 0
KSVS 220805Z 24008KT 12/06 A2988 RMK A01 T01240058  RH  066%=      5-min Rain = 0
KSVS 220810Z 23009KT 12/06 A2988 RMK A01 T01210057  RH  066%=      5-min Rain = 0
KSVS 220815Z 22010KT 12/06 A2988 RMK A01 T01220062  RH  068%=      5-min Rain = 0
KSVS 220820Z 21010KT 13/07 A2988 RMK A01 T01260069  RH  070%=      5-min Rain = 0
KSVS 220825Z 21011KT 14/08 A2988 RMK A01 T01430082  RH  069%=      5-min Rain = 0
KSVS 220830Z 21011KT 15/09 A2988 RMK A01 T01520086  RH  067%=      5-min Rain = 0
KSVS 220835Z 21011KT 15/09 A2988 RMK A01 T01540087  RH  066%=      5-min Rain = 0
KSVS 220840Z 22011KT 15/09 A2989 RMK A01 T01540088  RH  067%=      5-min Rain = 0
KSVS 220845Z 24009KT 15/09 A2989 RMK A01 T01510088  RH  068%=      5-min Rain = 0
KSVS 220850Z 29010KT 13/07 A2989 RMK A01 T01270069  RH  070%=      5-min Rain = 0
KSVS 220855Z 27010KT 12/07 A2989 RMK A01 T01200067  RH  072%=      5-min Rain = 0
KSVS 220900Z 28011KT 12/07 A299 RMK A01 T01220068  RH  072%=      5-min Rain = 0
KSVS 220905Z 27011KT 12/06 A2991 RMK A01 T01220064  RH  069%=      5-min Rain = 0
KSVS 220910Z 30013KT 12/06 A2992 RMK A01 T01200059  RH  068%=      5-min Rain = 0
KSVS 220915Z 27013KT 13/05 A2991 RMK A01 T01290048  RH  059%=      5-min Rain = 0
KSVS 220920Z 26013KT 14/06 A2991 RMK A01 T01400056  RH  058%=      5-min Rain = 0
KSVS 220925Z 26011KT 14/05 A2991 RMK A01 T01390052  RH  057%=      5-min Rain = 0
KSVS 220930Z 26011KT 13/05 A2992 RMK A01 T01310046  RH  057%=      5-min Rain = 0
KSVS 220935Z 25011KT 13/04 A2992 RMK A01 T01310044  RH  057%=      5-min Rain = 0
KSVS 220940Z 25011KT 13/04 A2993 RMK A01 T01280043  RH  057%=      5-min Rain = 0
KSVS 220945Z 28011KT 12/04 A2993 RMK A01 T01200040  RH  059%=      5-min Rain = 0
KSVS 220950Z 28012KT 12/03 A2993 RMK A01 T01170032  RH  057%=      5-min Rain = 0
KSVS 220955Z 29010KT 11/03 A2994 RMK A01 T01130026  RH  056%=      5-min Rain = 0
KSVS 221000Z 30009KT 11/02 A2995 RMK A01 T01100020  RH  055%=      5-min Rain = 0
KSVS 221005Z 30009KT 11/02 A2995 RMK A01 T01080016  RH  054%=      5-min Rain = 0
KSVS 221010Z 30010KT 10/01 A2994 RMK A01 T01030014  RH  055%=      5-min Rain = 0
KSVS 221015Z 30011KT 10/01 A2994 RMK A01 T01010011  RH  054%=      5-min Rain = 0
KSVS 221020Z 32010KT 11/01 A2994 RMK A01 T01070008  RH  051%=      5-min Rain = 0
KSVS 221025Z 31009KT 10/01 A2994 RMK A01 T01000009  RH  054%=      5-min Rain = 0
KSVS 221030Z 33010KT 10/01 A2994 RMK A01 T00950011  RH  056%=      5-min Rain = 0
KSVS 221035Z 34011KT 11/03 A2995 RMK A01 T01070025  RH  058%=      5-min Rain = 0
KSVS 221040Z 34011KT 12/04 A2995 RMK A01 T01170040  RH  060%=      5-min Rain = 0
KSVS 221045Z 34010KT 12/04 A2996 RMK A01 T01240042  RH  059%=      5-min Rain = 0
KSVS 221050Z 35010KT 12/04 A2996 RMK A01 T01170044  RH  062%=      5-min Rain = 0
KSVS 221055Z 35011KT 12/05 A2996 RMK A01 T01220051  RH  063%=      5-min Rain = 0
KSVS 221100Z 00011KT 13/06 A2996 RMK A01 T01280058  RH  064%=      5-min Rain = 0
KSVS 221105Z 00012KT 13/06 A2996 RMK A01 T01310061  RH  064%=      5-min Rain = 0
KSVS 221110Z 36011KT 13/06 A2996 RMK A01 T01310062  RH  064%=      5-min Rain = 0
KSVS 221115Z 00012KT 13/06 A2996 RMK A01 T01310062  RH  065%=      5-min Rain = 0
KSVS 221120Z 00010KT 13/06 A2996 RMK A01 T01310063  RH  065%=      5-min Rain = 0
KSVS 221125Z 01011KT 13/06 A2997 RMK A01 T01290063  RH  066%=      5-min Rain = 0
KSVS 221130Z 01011KT 13/06 A2997 RMK A01 T01290063  RH  066%=      5-min Rain = 0
KSVS 221135Z 01012KT 13/06 A2997 RMK A01 T01280063  RH  066%=      5-min Rain = 0
KSVS 221140Z 01012G17KT 13/06 A2997 RMK A01 T01290063  RH  066%=      5-min Rain = 0
KSVS 221145Z 02011KT 13/06 A2997 RMK A01 T01270063  RH  066%=      5-min Rain = 0
KSVS 221150Z 02010KT 13/06 A2998 RMK A01 T01260062  RH  067%=      5-min Rain = 0
KSVS 221155Z 01010KT 13/06 A2999 RMK A01 T01260062  RH  067%=      5-min Rain = 0
KSVS 221200Z 01011KT 12/06 A2999 RMK A01 T01240062  RH  067%=      5-min Rain = 0
KSVS 221205Z 00010KT 12/06 A2999 RMK A01 T01220062  RH  068%=      5-min Rain = 0
KSVS 221210Z 00009KT 12/06 A30 RMK A01 T01200062  RH  069%=      5-min Rain = 0
KSVS 221215Z 00010KT 12/06 A3001 RMK A01 T01200062  RH  069%=      5-min Rain = 0
KSVS 221220Z 00009KT 12/06 A3001 RMK A01 T01190062  RH  070%=      5-min Rain = 0
KSVS 221225Z 00010KT 12/06 A3001 RMK A01 T01200063  RH  070%=      5-min Rain = 0
KSVS 221230Z 00010KT 12/07 A3001 RMK A01 T01210065  RH  070%=      5-min Rain = 0
KSVS 221235Z 01012KT 12/07 A3001 RMK A01 T01220065  RH  070%=      5-min Rain = 0
KSVS 221240Z 00012KT 12/07 A3001 RMK A01 T01230066  RH  070%=      5-min Rain = 0
KSVS 221245Z 01012G19KT 12/07 A3002 RMK A01 T01230067  RH  070%=      5-min Rain = 0
KSVS 221250Z 01012KT 13/07 A3002 RMK A01 T01250068  RH  070%=      5-min Rain = 0
KSVS 221255Z 01011G16KT 13/07 A3002 RMK A01 T01250068  RH  070%=      5-min Rain = 0
KSVS 221300Z 00012KT 13/07 A3003 RMK A01 T01260069  RH  070%=      5-min Rain = 0
KSVS 221305Z 00013KT 13/07 A3003 RMK A01 T01270069  RH  070%=      5-min Rain = 0
KSVS 221310Z 01011KT 13/07 A3003 RMK A01 T01260070  RH  070%=      5-min Rain = 0
KSVS 221315Z 00014G19KT 13/07 A3004 RMK A01 T01260070  RH  071%=      5-min Rain = 0
KSVS 221320Z 01014KT 13/07 A3004 RMK A01 T01260071  RH  071%=      5-min Rain = 0
KSVS 221325Z 00013G19KT 13/07 A3004 RMK A01 T01280072  RH  070%=      5-min Rain = 0
KSVS 221330Z 01014G19KT 13/07 A3004 RMK A01 T01290073  RH  070%=      5-min Rain = 0
KSVS 221335Z 01014G19KT 13/07 A3004 RMK A01 T01300074  RH  071%=      5-min Rain = 0
KSVS 221340Z 01014G19KT 13/07 A3004 RMK A01 T01310074  RH  070%=      5-min Rain = 0
KSVS 221345Z 01015G20KT 13/07 A3005 RMK A01 T01300074  RH  071%=      5-min Rain = 0
KSVS 221350Z 01015G22KT 13/07 A3004 RMK A01 T01300074  RH  071%=      5-min Rain = 0
KSVS 221355Z 01018KT 13/07 A3004 RMK A01 T01300074  RH  071%=      5-min Rain = 0
KSVS 221400Z 01015G20KT 13/08 A3005 RMK A01 T01320076  RH  071%=      5-min Rain = 0
KSVS 221405Z 01016G21KT 13/08 A3005 RMK A01 T01330076  RH  070%=      5-min Rain = 0
KSVS 221410Z 01016G22KT 13/08 A3005 RMK A01 T01340077  RH  070%=      5-min Rain = 0
KSVS 221415Z 01014G20KT 14/08 A3005 RMK A01 T01380079  RH  069%=      5-min Rain = 0
KSVS 221420Z 01013KT 14/08 A3005 RMK A01 T01370078  RH  069%=      5-min Rain = 0
KSVS 221425Z 00014KT 14/08 A3005 RMK A01 T01360077  RH  070%=      5-min Rain = 0
KSVS 221430Z 01014KT 14/08 A3005 RMK A01 T01370078  RH  069%=      5-min Rain = 0
KSVS 221435Z 01014KT 14/08 A3005 RMK A01 T01370079  RH  070%=      5-min Rain = 0
KSVS 221440Z 01016G21KT 14/08 A3005 RMK A01 T01390079  RH  069%=      5-min Rain = 0
KSVS 221445Z 01016G21KT 14/08 A3005 RMK A01 T01380078  RH  069%=      5-min Rain = 0
KSVS 221450Z 01015KT 14/08 A3006 RMK A01 T01380079  RH  069%=      5-min Rain = 0
KSVS 221455Z 01013G18KT 14/08 A3006 RMK A01 T01440081  RH  068%=      5-min Rain = 0
KSVS 221500Z 01014G19KT 14/08 A3006 RMK A01 T01440080  RH  068%=      5-min Rain = 0
KSVS 221505Z 00015KT 14/08 A3006 RMK A01 T01440080  RH  067%=      5-min Rain = 0
KSVS 221510Z 01015KT 15/08 A3006 RMK A01 T01490082  RH  066%=      5-min Rain = 0
KSVS 221515Z 01015KT 15/08 A3006 RMK A01 T01540083  RH  065%=      5-min Rain = 0
KSVS 221520Z 01013G19KT 16/08 A3006 RMK A01 T01560084  RH  064%=      5-min Rain = 0
KSVS 221525Z 01015KT 15/08 A3006 RMK A01 T01530082  RH  064%=      5-min Rain = 0
KSVS 221530Z 01016G21KT 16/08 A3006 RMK A01 T01570083  RH  063%=      5-min Rain = 0
KSVS 221535Z 01015KT 17/09 A3006 RMK A01 T01650085  RH  061%=      5-min Rain = 0
KSVS 221540Z 01017G22KT 16/08 A3006 RMK A01 T01580082  RH  062%=      5-min Rain = 0
KSVS 221545Z 01018KT 16/09 A3006 RMK A01 T01630085  RH  062%=      5-min Rain = 0
KSVS 221550Z 01016G22KT 17/09 A3006 RMK A01 T01660085  RH  060%=      5-min Rain = 0
KSVS 221555Z 02016KT 16/08 A3006 RMK A01 T01600082  RH  061%=      5-min Rain = 0
KSVS 221600Z 01016KT 16/08 A3006 RMK A01 T01630084  RH  061%=      5-min Rain = 0
KSVS 221605Z 02016KT 17/09 A3006 RMK A01 T01680086  RH  060%=      5-min Rain = 0
KSVS 221610Z 02015KT 17/09 A3007 RMK A01 T01720086  RH  058%=      5-min Rain = 0
KSVS 221615Z 01014KT 16/08 A3007 RMK A01 T01620083  RH  061%=      5-min Rain = 0
KSVS 221620Z 02014G20KT 17/09 A3007 RMK A01 T01720087  RH  059%=      5-min Rain = 0
KSVS 221625Z 02016KT 17/09 A3007 RMK A01 T01690085  RH  059%=      5-min Rain = 0
KSVS 221630Z 02014G19KT 17/09 A3007 RMK A01 T01710086  RH  059%=      5-min Rain = 0
KSVS 221635Z 02014G19KT 17/09 A3007 RMK A01 T01740088  RH  059%=      5-min Rain = 0
KSVS 221640Z 03014KT 17/09 A3007 RMK A01 T01740087  RH  058%=      5-min Rain = 0
KSVS 221645Z 03014KT 18/09 A3007 RMK A01 T01770088  RH  057%=      5-min Rain = 0
KSVS 221650Z 03013G19KT 18/09 A3007 RMK A01 T01760087  RH  057%=      5-min Rain = 0
KSVS 221655Z 01013G19KT 18/09 A3007 RMK A01 T01760088  RH  058%=      5-min Rain = 0
KSVS 221700Z 02015KT 17/09 A3007 RMK A01 T01730086  RH  058%=      5-min Rain = 0
KSVS 221705Z 02015KT 17/09 A3007 RMK A01 T01720087  RH  059%=      5-min Rain = 0
KSVS 221710Z 03013G19KT 17/09 A3007 RMK A01 T01710086  RH  059%=      5-min Rain = 0
KSVS 221715Z 02015KT 17/09 A3007 RMK A01 T01730087  RH  059%=      5-min Rain = 0
KSVS 221720Z 03014KT 17/09 A3006 RMK A01 T01710086  RH  059%=      5-min Rain = 0
KSVS 221725Z 02015G20KT 17/09 A3006 RMK A01 T01720087  RH  059%=      5-min Rain = 0
KSVS 221730Z 02014G20KT 18/09 A3006 RMK A01 T01760088  RH  058%=      5-min Rain = 0
KSVS 221735Z 02015G21KT 18/09 A3006 RMK A01 T01750087  RH  058%=      5-min Rain = 0
KSVS 221740Z 01017KT 18/09 A3006 RMK A01 T01770088  RH  058%=      5-min Rain = 0
KSVS 221745Z 03016G22KT 18/09 A3006 RMK A01 T01800089  RH  057%=      5-min Rain = 0
KSVS 221750Z 04017G22KT 18/09 A3006 RMK A01 T01800088  RH  056%=      5-min Rain = 0
KSVS 221755Z 02015G20KT 18/09 A3006 RMK A01 T01830088  RH  056%=      5-min Rain = 0
KSVS 221800Z 02014G20KT 18/09 A3006 RMK A01 T01820089  RH  056%=      5-min Rain = 0
KSVS 221805Z 04015G20KT 18/09 A3006 RMK A01 T01800088  RH  056%=      5-min Rain = 0
KSVS 221810Z 03015KT 18/09 A3006 RMK A01 T01770087  RH  057%=      5-min Rain = 0
KSVS 221815Z 03018G23KT 18/09 A3005 RMK A01 T01770087  RH  057%=      5-min Rain = 0
KSVS 221820Z 02017G24KT 18/09 A3004 RMK A01 T01810089  RH  057%=      5-min Rain = 0
KSVS 221825Z 02016G24KT 18/09 A3005 RMK A01 T01800089  RH  057%=      5-min Rain = 0
KSVS 221830Z 03016KT 18/09 A3005 RMK A01 T01800088  RH  056%=      5-min Rain = 0
KSVS 221835Z 03013G18KT 18/09 A3005 RMK A01 T01810090  RH  057%=      5-min Rain = 0
KSVS 221840Z 03015G21KT 18/09 A3006 RMK A01 T01820090  RH  057%=      5-min Rain = 0
KSVS 221845Z 03014G20KT 18/09 A3006 RMK A01 T01820090  RH  057%=      5-min Rain = 0
KSVS 221850Z 05017G22KT 18/09 A3006 RMK A01 T01810089  RH  056%=      5-min Rain = 0
KSVS 221855Z 05016KT 18/09 A3007 RMK A01 T01830090  RH  056%=      5-min Rain = 0
KSVS 221900Z 05016G21KT 19/09 A3007 RMK A01 T01860090  RH  056%=      5-min Rain = 0
KSVS 221905Z 04014G21KT 19/09 A3007 RMK A01 T01870091  RH  055%=      5-min Rain = 0
KSVS 221910Z 05015G20KT 19/09 A3008 RMK A01 T01870090  RH  055%=      5-min Rain = 0
KSVS 221915Z 04016G21KT 19/09 A3007 RMK A01 T01860090  RH  055%=      5-min Rain = 0
KSVS 221920Z 03018KT 19/09 A3005 RMK A01 T01850089  RH  055%=      5-min Rain = 0
KSVS 221925Z 04014G20KT 18/09 A3007 RMK A01 T01830089  RH  056%=      5-min Rain = 0
KSVS 221930Z 04013KT 18/09 A3008 RMK A01 T01840090  RH  056%=      5-min Rain = 0
KSVS 221935Z 05013KT 19/09 A3008 RMK A01 T01870091  RH  055%=      5-min Rain = 0
KSVS 221940Z 05012G17KT 19/09 A3008 RMK A01 T01860090  RH  055%=      5-min Rain = 0
KSVS 221945Z 05014G19KT 19/09 A3008 RMK A01 T01850090  RH  056%=      5-min Rain = 0
KSVS 221950Z 05014G19KT 19/09 A3008 RMK A01 T01850090  RH  056%=      5-min Rain = 0
KSVS 221955Z 05012G22KT 18/09 A3008 RMK A01 T01820091  RH  057%=      5-min Rain = 0
KSVS 222000Z 04018G24KT 18/09 A3005 RMK A01 T01810090  RH  057%=      5-min Rain = 0
KSVS 222005Z 06014G19KT 18/10 A3006 RMK A01 T01820095  RH  059%=      5-min Rain = 0
KSVS 222010Z 04014KT 18/10 A3007 RMK A01 T01810096  RH  059%=      5-min Rain = 0
KSVS 222015Z 03015G20KT 18/09 A3007 RMK A01 T01840094  RH  057%=      5-min Rain = 0
KSVS 222020Z 03016KT 19/09 A3006 RMK A01 T01850092  RH  056%=      5-min Rain = 0
KSVS 222025Z 05012KT 19/09 A3007 RMK A01 T01870093  RH  056%=      5-min Rain = 0
KSVS 222030Z 05013G18KT 18/09 A3007 RMK A01 T01840091  RH  056%=      5-min Rain = 0
KSVS 222035Z 04012KT 18/09 A3008 RMK A01 T01830091  RH  057%=      5-min Rain = 0
KSVS 222040Z 03018G25KT 18/09 A3006 RMK A01 T01810090  RH  057%=      5-min Rain = 0
KSVS 222045Z 04016KT 18/09 A3006 RMK A01 T01790093  RH  059%=      5-min Rain = 0
KSVS 222050Z 04020KT 18/10 A3004 RMK A01 T01750100  RH  063%=      5-min Rain = 0
KSVS 222055Z 03018G23KT 17/10 A3003 RMK A01 T01720104  RH  066%=      5-min Rain = 0
KSVS 222100Z 04016G22KT 18/10 A3003 RMK A01 T01770104  RH  064%=      5-min Rain = 0
KSVS 222105Z 04015G21KT 18/10 A3005 RMK A01 T01790100  RH  062%=      5-min Rain = 0
KSVS 222110Z 03013G19KT 18/10 A3005 RMK A01 T01790100  RH  062%=      5-min Rain = 0
KSVS 222115Z 04010G15KT 18/10 A3007 RMK A01 T01810101  RH  061%=      5-min Rain = 0
KSVS 222120Z 03010KT 18/10 A3008 RMK A01 T01840099  RH  060%=      5-min Rain = 0
KSVS 222125Z 02008KT 18/10 A3009 RMK A01 T01780099  RH  062%=      5-min Rain = 0
KSVS 222130Z 02010KT 18/10 A3009 RMK A01 T01760100  RH  063%=      5-min Rain = 0
KSVS 222135Z 03014G19KT 18/10 A3006 RMK A01 T01780099  RH  062%=      5-min Rain = 0
KSVS 222140Z 04011G17KT 18/10 A3008 RMK A01 T01790099  RH  061%=      5-min Rain = 0
KSVS 222145Z 04011KT 18/10 A3008 RMK A01 T01790101  RH  062%=      5-min Rain = 0
KSVS 222150Z 03010KT 18/10 A3008 RMK A01 T01790100  RH  062%=      5-min Rain = 0
KSVS 222155Z 03011KT 18/10 A3009 RMK A01 T01760099  RH  062%=      5-min Rain = 0
KSVS 222200Z 02010KT 17/10 A3009 RMK A01 T01740098  RH  063%=      5-min Rain = 0
KSVS 222205Z 02011KT 17/10 A3009 RMK A01 T01730098  RH  063%=      5-min Rain = 0
KSVS 222210Z 01016G21KT 17/10 A3007 RMK A01 T01740098  RH  063%=      5-min Rain = 0
KSVS 222215Z 01017KT 17/10 A3005 RMK A01 T01730101  RH  065%=      5-min Rain = 0
KSVS 222220Z 02015G20KT 17/10 A3005 RMK A01 T01720104  RH  066%=      5-min Rain = 0
KSVS 222225Z 03014G19KT 17/10 A3005 RMK A01 T01720102  RH  066%=      5-min Rain = 0
KSVS 222230Z 03013G18KT 17/10 A3006 RMK A01 T01730100  RH  064%=      5-min Rain = 0
KSVS 222235Z 03012KT 17/10 A3006 RMK A01 T01730099  RH  064%=      5-min Rain = 0
KSVS 222240Z 03015KT 17/10 A3006 RMK A01 T01730098  RH  063%=      5-min Rain = 0
KSVS 222245Z 04014G20KT 17/10 A3007 RMK A01 T01720097  RH  063%=      5-min Rain = 0
KSVS 222250Z 03013KT 17/10 A3007 RMK A01 T01720097  RH  063%=      5-min Rain = 0
KSVS 222255Z 03015KT 17/10 A3007 RMK A01 T01720097  RH  063%=      5-min Rain = 0
KSVS 222300Z 03014KT 17/10 A3007 RMK A01 T01710097  RH  063%=      5-min Rain = 0
KSVS 222305Z 02013G18KT 17/10 A3007 RMK A01 T01700097  RH  064%=      5-min Rain = 0
KSVS 222310Z 02009KT 17/10 A3009 RMK A01 T01690098  RH  065%=      5-min Rain = 0
KSVS 222315Z 04006KT 17/10 A3011 RMK A01 T01670100  RH  067%=      5-min Rain = 0
KSVS 222320Z 04006KT 17/10 A3011 RMK A01 T01660102  RH  068%=      5-min Rain = 0
KSVS 222325Z 02007KT 16/11 A3011 RMK A01 T01610107  RH  073%=      5-min Rain = 0
KSVS 222330Z 01006KT 15/11 A3011 RMK A01 T01540112  RH  079%=      5-min Rain = 0
KSVS 222335Z 02007KT 15/11 A301 RMK A01 T01520114  RH  081%=      5-min Rain = 0
KSVS 222340Z 02008KT 15/12 A301 RMK A01 T01510115  RH  082%=      5-min Rain = 0
KSVS 222345Z 02009KT 15/12 A3009 RMK A01 T01490116  RH  084%=      5-min Rain = 0
KSVS 222350Z 02009KT 15/12 A3009 RMK A01 T01480118  RH  085%=      5-min Rain = 0.01
KSVS 222355Z 02009KT 15/12 A3008 RMK A01 T01480118  RH  086%=      5-min Rain = 0
KSVS 230000Z 02009KT 15/12 A3008 RMK A01 T01490117  RH  085%=      5-min Rain = 0
KSVS 230005Z 02010KT 15/12 A3008 RMK A01 T01480117  RH  085%=      5-min Rain = 0
KSVS 230010Z 02011KT 15/12 A3007 RMK A01 T01480118  RH  085%=      5-min Rain = 0
KSVS 230015Z 02013KT 15/12 A3007 RMK A01 T01480116  RH  084%=      5-min Rain = 0
KSVS 230020Z 03010KT 15/12 A3008 RMK A01 T01470116  RH  084%=      5-min Rain = 0
KSVS 230025Z 03009KT 15/11 A3008 RMK A01 T01470114  RH  084%=      5-min Rain = 0
KSVS 230030Z 02008KT 15/11 A3009 RMK A01 T01460113  RH  084%=      5-min Rain = 0
KSVS 230035Z 03007KT 15/11 A3009 RMK A01 T01450114  RH  085%=      5-min Rain = 0
KSVS 230040Z 03008KT 14/12 A3009 RMK A01 T01430115  RH  086%=      5-min Rain = 0.02
KSVS 230045Z 04009KT 14/12 A3009 RMK A01 T01410116  RH  087%=      5-min Rain = 0
KSVS 230050Z 04009KT 14/12 A3009 RMK A01 T01410115  RH  087%=      5-min Rain = 0
KSVS 230055Z 03009KT 14/11 A3009 RMK A01 T01410114  RH  087%=      5-min Rain = 0
KSVS 230100Z 03010KT 14/12 A3009 RMK A01 T01390115  RH  088%=      5-min Rain = 0
KSVS 230105Z 04010KT 14/12 A3008 RMK A01 T01400115  RH  088%=      5-min Rain = 0
KSVS 230110Z 04011KT 14/12 A3008 RMK A01 T01390115  RH  089%=      5-min Rain = 0
KSVS 230115Z 03011KT 14/12 A3007 RMK A01 T01380115  RH  089%=      5-min Rain = 0
KSVS 230120Z 02013KT 14/12 A3006 RMK A01 T01370115  RH  090%=      5-min Rain = 0
KSVS 230125Z 02013KT 14/11 A3006 RMK A01 T01360114  RH  090%=      5-min Rain = 0
KSVS 230130Z 01014KT 14/11 A3006 RMK A01 T01360113  RH  089%=      5-min Rain = 0
KSVS 230135Z 01013KT 14/11 A3006 RMK A01 T01350113  RH  089%=      5-min Rain = 0
KSVS 230140Z 01014KT 13/11 A3005 RMK A01 T01340113  RH  090%=      5-min Rain = 0
KSVS 230145Z 01013KT 13/11 A3005 RMK A01 T01340112  RH  090%=      5-min Rain = 0
KSVS 230150Z 00014KT 13/11 A3004 RMK A01 T01330113  RH  091%=      5-min Rain = 0
KSVS 230155Z 00013KT 13/11 A3004 RMK A01 T01320113  RH  091%=      5-min Rain = 0
KSVS 230200Z 01012KT 13/11 A3004 RMK A01 T01310114  RH  093%=      5-min Rain = 0
KSVS 230205Z 01011KT 13/11 A3004 RMK A01 T01300114  RH  094%=      5-min Rain = 0
KSVS 230210Z 01010KT 13/11 A3005 RMK A01 T01290114  RH  094%=      5-min Rain = 0
KSVS 230215Z 01011KT 13/11 A3005 RMK A01 T01290114  RH  094%=      5-min Rain = 0
KSVS 230220Z 01010KT 13/11 A3006 RMK A01 T01290114  RH  094%=      5-min Rain = 0
KSVS 230225Z 01010KT 13/11 A3006 RMK A01 T01290114  RH  094%=      5-min Rain = 0
KSVS 230230Z 02009KT 13/11 A3007 RMK A01 T01300113  RH  093%=      5-min Rain = 0
KSVS 230235Z 02010KT 13/11 A3007 RMK A01 T01300110  RH  091%=      5-min Rain = 0
KSVS 230240Z 03009KT 13/11 A3008 RMK A01 T01300110  RH  091%=      5-min Rain = 0.01
KSVS 230245Z 03008KT 13/11 A3009 RMK A01 T01300110  RH  090%=      5-min Rain = 0
KSVS 230250Z 04008KT 13/11 A301 RMK A01 T01300110  RH  091%=      5-min Rain = 0.01
KSVS 230255Z 04010KT 13/11 A301 RMK A01 T01290110  RH  091%=      5-min Rain = 0.01
KSVS 230300Z 01012KT 13/11 A3009 RMK A01 T01270110  RH  092%=      5-min Rain = 0.02
KSVS 230305Z 36010KT 13/11 A3009 RMK A01 T01260110  RH  094%=      5-min Rain = 0.02
KSVS 230310Z 34009KT 13/11 A301 RMK A01 T01260111  RH  094%=      5-min Rain = 0.01
KSVS 230315Z 35013G18KT 13/11 A3009 RMK A01 T01250112  RH  095%=      5-min Rain = 0.02
KSVS 230320Z 36015KT 12/11 A3007 RMK A01 T01240113  RH  096%=      5-min Rain = 0.03
KSVS 230325Z 03012G17KT 12/11 A3009 RMK A01 T01230113  RH  097%=      5-min Rain = 0
KSVS 230330Z 03012KT 12/11 A3009 RMK A01 T01230113  RH  097%=      5-min Rain = 0
KSVS 230335Z 03011KT 12/11 A3009 RMK A01 T01230112  RH  097%=      5-min Rain = 0
KSVS 230340Z 03012KT 12/11 A301 RMK A01 T01240113  RH  096%=      5-min Rain = 0.01
KSVS 230345Z 03011KT 12/11 A3011 RMK A01 T01240112  RH  096%=      5-min Rain = 0
KSVS 230350Z 02010KT 12/11 A301 RMK A01 T01240112  RH  096%=      5-min Rain = 0
KSVS 230355Z 01012KT 12/11 A301 RMK A01 T01230112  RH  097%=      5-min Rain = 0
KSVS 230400Z 00011KT 12/11 A3009 RMK A01 T01220113  RH  097%=      5-min Rain = 0
KSVS 230405Z 36011KT 12/11 A301 RMK A01 T01220113  RH  098%=      5-min Rain = 0
KSVS 230410Z 35011KT 12/11 A301 RMK A01 T01220114  RH  098%=      5-min Rain = 0
KSVS 230415Z 36011KT 12/11 A301 RMK A01 T01220114  RH  099%=      5-min Rain = 0
KSVS 230420Z 36011KT 12/12 A301 RMK A01 T01220115  RH  099%=      5-min Rain = 0
KSVS 230425Z 01011KT 12/12 A3009 RMK A01 T01210115  RH  099%=      5-min Rain = 0
KSVS 230430Z 01012KT 12/12 A3009 RMK A01 T01210115  RH  100%=      5-min Rain = 0
KSVS 230435Z 01013KT 12/12 A3009 RMK A01 T01210115  RH  100%=      5-min Rain = 0
KSVS 230440Z 02013KT 12/12 A3008 RMK A01 T01210115  RH  099%=      5-min Rain = 0
KSVS 230445Z 02015KT 12/11 A3008 RMK A01 T01210114  RH  099%=      5-min Rain = 0
KSVS 230450Z 01014KT 12/11 A3007 RMK A01 T01210114  RH  099%=      5-min Rain = 0
KSVS 230455Z 01013KT 12/11 A3007 RMK A01 T01200114  RH  100%=      5-min Rain = 0

Page generated in 0.0145 seconds.